createdAt,value
2022-12-03T00:01:54.520Z,90020.81
2022-12-03T00:04:21.392Z,90031.31
2022-12-03T00:06:48.295Z,90026.75
2022-12-03T00:09:15.276Z,90020.25
2022-12-03T00:11:42.040Z,90026.69
2022-12-03T00:14:08.971Z,90034.28
2022-12-03T00:16:35.857Z,90025.50
2022-12-03T00:19:02.850Z,90033.28
2022-12-03T00:21:29.739Z,90036.09
2022-12-03T00:23:56.529Z,90042.84
2022-12-03T00:26:23.449Z,90035.47
2022-12-03T00:28:50.421Z,90040.72
2022-12-03T00:31:17.255Z,90037.53
2022-12-03T00:33:44.163Z,90036.66
2022-12-03T00:36:11.058Z,90043.00
2022-12-03T00:38:37.893Z,90040.88
2022-12-03T00:41:04.858Z,90036.78
2022-12-03T00:43:31.704Z,90042.00
2022-12-03T00:45:58.449Z,90032.06
2022-12-03T00:48:25.586Z,90038.84
2022-12-03T00:50:52.807Z,90042.28
2022-12-03T00:53:19.716Z,90046.53
2022-12-03T00:55:46.624Z,90052.78
2022-12-03T00:58:13.444Z,90052.47
2022-12-03T01:00:40.388Z,90058.50
2022-12-03T01:03:07.543Z,90044.84
2022-12-03T01:05:34.412Z,90040.78
2022-12-03T01:08:01.252Z,90042.25
2022-12-03T01:10:28.068Z,90051.75
2022-12-03T01:12:55.015Z,90049.34
2022-12-03T01:15:21.875Z,90056.75
2022-12-03T01:17:48.744Z,90042.69
2022-12-03T01:20:15.675Z,90046.56
2022-12-03T01:22:42.616Z,90042.44
2022-12-03T01:25:09.973Z,90041.25
2022-12-03T01:27:36.915Z,90044.69
2022-12-03T01:30:04.478Z,90039.78
2022-12-03T01:32:31.408Z,90051.28
2022-12-03T01:34:58.275Z,90047.91
2022-12-03T01:37:27.227Z,90048.94
2022-12-03T01:39:54.476Z,90050.59
2022-12-03T01:42:27.773Z,90048.41
2022-12-03T01:44:57.947Z,90057.69
2022-12-03T01:47:30.071Z,90058.72
2022-12-03T01:50:24.722Z,90056.00
2022-12-03T01:52:53.691Z,90049.97
2022-12-03T01:55:24.734Z,90053.78
2022-12-03T01:57:55.352Z,90053.63
2022-12-03T02:00:23.956Z,90053.97
2022-12-03T02:02:54.352Z,90061.38
2022-12-03T02:05:24.355Z,90062.69
2022-12-03T02:07:51.335Z,90051.94
2022-12-03T02:10:21.846Z,90063.06
2022-12-03T02:12:56.886Z,90059.13
2022-12-03T02:15:24.132Z,90051.75
2022-12-03T02:17:51.058Z,90046.91
2022-12-03T02:20:18.540Z,90048.66
2022-12-03T02:22:57.468Z,90043.41
2022-12-03T02:25:31.080Z,90044.44
2022-12-03T02:27:59.220Z,90038.41
2022-12-03T02:30:28.642Z,90044.31
2022-12-03T02:32:56.429Z,90046.13
2022-12-03T02:35:30.427Z,90041.88
2022-12-03T02:38:19.701Z,90042.94
2022-12-03T02:40:48.791Z,90052.38
2022-12-03T02:43:17.791Z,90044.84
2022-12-03T02:45:51.562Z,90049.41
2022-12-03T02:48:23.872Z,90061.63
2022-12-03T02:50:53.869Z,90061.25
2022-12-03T02:53:25.535Z,90064.50
2022-12-03T02:55:54.919Z,90071.16
2022-12-03T02:58:23.706Z,90071.59
2022-12-03T03:00:53.514Z,90072.28
2022-12-03T03:03:22.326Z,90072.06
2022-12-03T03:05:50.483Z,90079.69
2022-12-03T03:08:18.218Z,90082.63
2022-12-03T03:10:46.212Z,90092.09
2022-12-03T03:13:14.833Z,90078.13
2022-12-03T03:15:42.684Z,90072.97
2022-12-03T03:18:10.758Z,90081.34
2022-12-03T03:20:38.538Z,90086.44
2022-12-03T03:23:11.364Z,90080.44
2022-12-03T03:25:41.411Z,90080.53
2022-12-03T03:28:08.595Z,90085.38
2022-12-03T03:30:36.799Z,90089.31
2022-12-03T03:33:03.713Z,90082.81
2022-12-03T03:35:30.995Z,90089.19
2022-12-03T03:37:58.539Z,90100.69
2022-12-03T03:40:26.599Z,90100.22
2022-12-03T03:42:53.682Z,90104.84
2022-12-03T03:45:25.492Z,90104.00
2022-12-03T03:47:57.142Z,90102.75
2022-12-03T03:50:24.495Z,90107.38
2022-12-03T03:52:51.821Z,90107.03
2022-12-03T03:55:18.807Z,90096.63
2022-12-03T03:57:45.785Z,90098.72
2022-12-03T04:00:13.046Z,90111.03
2022-12-03T04:02:41.062Z,90105.94
2022-12-03T04:05:11.483Z,90115.19
2022-12-03T04:07:38.439Z,90122.34
2022-12-03T04:10:06.037Z,90123.97
2022-12-03T04:12:32.943Z,90131.06
2022-12-03T04:14:59.945Z,90124.34
2022-12-03T04:17:26.892Z,90131.22
2022-12-03T04:19:54.035Z,90132.78
2022-12-03T04:22:20.959Z,90129.91
2022-12-03T04:24:47.892Z,90129.53
2022-12-03T04:27:14.725Z,90123.31
2022-12-03T04:29:41.665Z,90136.34
2022-12-03T04:32:08.540Z,90137.34
2022-12-03T04:34:35.546Z,90139.19
2022-12-03T04:37:02.531Z,90136.16
2022-12-03T04:39:29.390Z,90142.34
2022-12-03T04:41:56.218Z,90143.13
2022-12-03T04:44:23.067Z,90148.63
2022-12-03T04:46:49.998Z,90153.19
2022-12-03T04:49:16.698Z,90158.13
2022-12-03T04:51:43.473Z,90150.09
2022-12-03T04:54:10.491Z,90158.25
2022-12-03T04:56:37.415Z,90151.84
2022-12-03T04:59:04.707Z,90159.19
2022-12-03T05:01:31.671Z,90162.88
2022-12-03T05:03:58.658Z,90153.81
2022-12-03T05:06:25.675Z,90167.00
2022-12-03T05:08:52.535Z,90160.78
2022-12-03T05:11:19.429Z,90155.28
2022-12-03T05:13:46.292Z,90156.00
2022-12-03T05:16:13.345Z,90159.19
2022-12-03T05:18:40.180Z,90162.16
2022-12-03T05:21:07.117Z,90164.78
2022-12-03T05:23:33.939Z,90166.59
2022-12-03T05:26:00.727Z,90168.81
2022-12-03T05:28:27.647Z,90176.94
2022-12-03T05:30:54.579Z,90180.13
2022-12-03T05:33:21.454Z,90184.66
2022-12-03T05:35:48.503Z,90184.28
2022-12-03T05:38:15.352Z,90186.50
2022-12-03T05:40:42.247Z,90185.28
2022-12-03T05:43:09.191Z,90183.94
2022-12-03T05:45:38.482Z,90190.41
2022-12-03T05:48:07.387Z,90195.25
2022-12-03T05:50:36.453Z,90196.03
2022-12-03T05:53:03.477Z,90186.63
2022-12-03T05:55:30.815Z,90200.56
2022-12-03T05:57:57.881Z,90192.81
2022-12-03T06:00:28.169Z,90191.28
2022-12-03T06:02:55.880Z,90211.28
2022-12-03T06:05:23.852Z,90211.28
2022-12-03T06:07:52.587Z,90210.72
2022-12-03T06:10:22.873Z,90201.06
2022-12-03T06:12:50.141Z,90200.81
2022-12-03T06:15:17.435Z,90203.47
2022-12-03T06:17:44.335Z,90207.97
2022-12-03T06:20:15.091Z,90213.63
2022-12-03T06:22:42.175Z,90215.88
2022-12-03T06:25:09.549Z,90221.84
2022-12-03T06:27:36.774Z,90209.63
2022-12-03T06:30:05.071Z,90211.38
2022-12-03T06:32:31.995Z,90210.88
2022-12-03T06:34:58.847Z,90209.97
2022-12-03T06:37:25.741Z,90215.88
2022-12-03T06:39:52.754Z,90206.31
2022-12-03T06:42:19.593Z,90213.81
2022-12-03T06:44:47.776Z,90204.06
2022-12-03T06:47:14.742Z,90219.13
2022-12-03T06:49:41.666Z,90211.53
2022-12-03T06:52:08.462Z,90209.78
2022-12-03T06:54:35.518Z,90217.31
2022-12-03T06:57:02.335Z,90222.41
2022-12-03T06:59:29.231Z,90213.88
2022-12-03T07:01:56.180Z,90215.59
2022-12-03T07:04:22.983Z,90219.22
2022-12-03T07:06:49.883Z,90221.25
2022-12-03T07:09:16.698Z,90216.44
2022-12-03T07:11:44.103Z,90238.78
2022-12-03T07:14:11.534Z,90228.16
2022-12-03T07:16:39.414Z,90218.81
2022-12-03T07:19:07.104Z,90227.66
2022-12-03T07:21:34.232Z,90216.81
2022-12-03T07:24:01.145Z,90226.00
2022-12-03T07:26:28.096Z,90220.22
2022-12-03T07:28:54.860Z,90223.09
2022-12-03T07:31:21.813Z,90224.09
2022-12-03T07:33:48.759Z,90212.16
2022-12-03T07:36:15.691Z,90225.38
2022-12-03T07:38:42.678Z,90220.78
2022-12-03T07:41:09.516Z,90222.91
2022-12-03T07:43:36.383Z,90219.28
2022-12-03T07:46:03.284Z,90218.53
2022-12-03T07:48:30.072Z,90225.06
2022-12-03T07:50:56.891Z,90227.06
2022-12-03T07:53:23.943Z,90224.69
2022-12-03T07:55:50.843Z,90230.63
2022-12-03T07:58:17.831Z,90227.06
2022-12-03T08:00:44.882Z,90231.78
2022-12-03T08:03:12.011Z,90223.31
2022-12-03T08:05:38.926Z,90233.47
2022-12-03T08:08:06.145Z,90229.22
2022-12-03T08:10:33.174Z,90222.69
2022-12-03T08:13:00.359Z,90227.47
2022-12-03T08:15:39.065Z,90222.53
2022-12-03T08:18:17.798Z,90215.47
2022-12-03T08:20:46.898Z,90220.66
2022-12-03T08:23:25.475Z,90221.00
2022-12-03T08:25:53.079Z,90216.38
2022-12-03T08:28:25.056Z,90212.88
2022-12-03T08:31:10.376Z,90213.50
2022-12-03T08:33:39.123Z,90217.06
2022-12-03T08:36:16.775Z,90211.63
2022-12-03T08:38:51.440Z,90213.84
2022-12-03T08:41:20.090Z,90207.19
2022-12-03T08:43:46.972Z,90203.03
2022-12-03T08:46:19.180Z,90202.63
2022-12-03T08:48:49.703Z,90208.38
2022-12-03T08:51:22.450Z,90200.13
2022-12-03T08:54:02.106Z,90206.22
2022-12-03T08:56:33.887Z,90192.56
2022-12-03T08:59:24.612Z,90203.50
2022-12-03T09:01:51.756Z,90199.81
2022-12-03T09:04:27.709Z,90185.63
2022-12-03T09:06:55.501Z,90185.59
2022-12-03T09:09:23.143Z,90183.53
2022-12-03T09:11:51.097Z,90184.75
2022-12-03T09:14:19.166Z,90179.56
2022-12-03T09:16:48.738Z,90177.22
2022-12-03T09:19:15.921Z,90170.78
2022-12-03T09:21:42.861Z,90178.91
2022-12-03T09:24:09.719Z,90174.34
2022-12-03T09:26:36.782Z,90184.00
2022-12-03T09:29:08.934Z,90186.06
2022-12-03T09:31:38.886Z,90173.03
2022-12-03T09:34:06.864Z,90180.53
2022-12-03T09:36:34.059Z,90169.19
2022-12-03T09:39:00.932Z,90166.31
2022-12-03T09:41:28.124Z,90162.63
2022-12-03T09:44:04.887Z,90156.69
2022-12-03T09:46:43.288Z,90162.75
2022-12-03T09:49:16.000Z,90160.97
2022-12-03T09:54:29.534Z,90153.03
2022-12-03T09:56:59.772Z,90149.19
2022-12-03T09:59:32.102Z,90150.94
2022-12-03T10:01:59.957Z,90153.31
2022-12-03T10:04:28.221Z,90149.63
2022-12-03T10:06:57.569Z,90139.44
2022-12-03T10:09:27.303Z,90150.75
2022-12-03T10:11:59.842Z,90141.41
2022-12-03T10:14:27.902Z,90134.72
2022-12-03T10:16:55.447Z,90137.38
2022-12-03T10:19:26.794Z,90135.63
2022-12-03T10:21:53.685Z,90140.66
2022-12-03T10:24:25.375Z,90135.78
2022-12-03T10:26:58.799Z,90138.44
2022-12-03T10:29:33.248Z,90135.50
2022-12-03T10:32:18.914Z,90134.22
2022-12-03T10:34:45.787Z,90135.88
2022-12-03T10:37:21.589Z,90136.19
2022-12-03T10:40:01.761Z,90144.03
2022-12-03T10:42:32.445Z,90128.22
2022-12-03T10:45:23.019Z,90139.19
2022-12-03T10:48:06.047Z,90136.09
2022-12-03T10:50:33.708Z,90135.66
2022-12-03T10:53:00.659Z,90133.78
2022-12-03T10:55:30.958Z,90134.34
2022-12-03T10:57:57.921Z,90139.66
2022-12-03T11:00:24.712Z,90134.59
2022-12-03T11:02:57.023Z,90131.03
2022-12-03T11:05:26.857Z,90136.91
2022-12-03T11:07:54.311Z,90132.19
2022-12-03T11:10:21.647Z,90134.22
2022-12-03T11:13:26.907Z,90125.09
2022-12-03T11:15:54.159Z,90131.06
2022-12-03T11:18:39.074Z,90124.50
2022-12-03T11:21:10.960Z,90127.84
2022-12-03T11:23:46.699Z,90125.84
2022-12-03T11:26:18.926Z,90133.56
2022-12-03T11:28:46.731Z,90124.09
2022-12-03T11:31:40.796Z,90119.38
2022-12-03T11:34:34.137Z,90120.88
2022-12-03T11:37:09.899Z,90124.91
2022-12-03T11:39:52.638Z,90117.03
2022-12-03T11:42:22.727Z,90116.69
2022-12-03T11:45:09.557Z,90121.41
2022-12-03T11:47:44.129Z,90112.97
2022-12-03T11:50:27.360Z,90115.38
2022-12-03T11:53:23.895Z,90109.41
2022-12-03T11:55:54.117Z,90118.44
2022-12-03T11:58:28.264Z,90118.72
2022-12-03T12:00:57.666Z,90117.19
2022-12-03T12:03:24.598Z,90115.03
2022-12-03T12:06:16.743Z,90126.31
2022-12-03T12:08:52.336Z,90118.72
2022-12-03T12:11:39.924Z,90119.47
2022-12-03T12:14:09.246Z,90115.47
2022-12-03T12:16:45.236Z,90117.66
2022-12-03T12:19:54.105Z,90116.97
2022-12-03T12:22:24.130Z,90122.75
2022-12-03T12:25:39.574Z,90124.38
2022-12-03T12:28:07.084Z,90129.31
2022-12-03T12:30:34.325Z,90127.78
2022-12-03T12:33:11.197Z,90119.41
2022-12-03T12:35:38.147Z,90130.94
2022-12-03T12:38:07.966Z,90126.00
2022-12-03T12:40:37.877Z,90117.34
2022-12-03T12:43:23.733Z,90120.69
2022-12-03T12:45:54.751Z,90116.84
2022-12-03T12:48:27.922Z,90118.06
2022-12-03T12:51:00.991Z,90123.66
2022-12-03T12:53:35.976Z,90115.72
2022-12-03T12:56:28.464Z,90117.66
2022-12-03T12:58:59.434Z,90123.94
2022-12-03T13:01:31.058Z,90115.56
2022-12-03T13:03:59.247Z,90127.38
2022-12-03T13:06:28.575Z,90125.97
2022-12-03T13:08:56.134Z,90125.09
2022-12-03T13:11:39.695Z,90122.91
2022-12-03T13:14:13.665Z,90124.84
2022-12-03T13:16:40.580Z,90128.38
2022-12-03T13:19:21.444Z,90118.09
2022-12-03T13:21:49.126Z,90131.63
2022-12-03T13:24:38.920Z,90118.47
2022-12-03T13:27:23.091Z,90123.03
2022-12-03T13:30:19.374Z,90123.44
2022-12-03T13:32:46.355Z,90124.50
2022-12-03T13:35:27.003Z,90130.84
2022-12-03T13:37:54.144Z,90137.75
2022-12-03T13:40:32.450Z,90135.72
2022-12-03T13:42:59.730Z,90127.91
2022-12-03T13:45:38.736Z,90135.72
2022-12-03T13:48:27.586Z,90144.50
2022-12-03T13:50:54.765Z,90138.09
2022-12-03T13:53:47.939Z,90137.06
2022-12-03T13:56:30.435Z,90128.22
2022-12-03T13:58:58.803Z,90132.47
2022-12-03T14:01:26.187Z,90141.03
2022-12-03T14:03:53.607Z,90135.72
2022-12-03T14:06:20.473Z,90143.06
2022-12-03T14:08:47.591Z,90146.19
2022-12-03T14:11:14.580Z,90139.03
2022-12-03T14:13:41.403Z,90149.84
2022-12-03T14:16:08.449Z,90144.13
2022-12-03T14:18:35.507Z,90147.22
2022-12-03T14:21:02.326Z,90154.63
2022-12-03T14:23:29.315Z,90151.66
2022-12-03T14:25:56.152Z,90145.09
2022-12-03T14:28:23.205Z,90158.34
2022-12-03T14:30:50.137Z,90150.84
2022-12-03T14:33:16.955Z,90156.59
2022-12-03T14:35:43.906Z,90154.94
2022-12-03T14:38:11.012Z,90166.16
2022-12-03T14:40:37.917Z,90165.59
2022-12-03T14:43:07.011Z,90164.66
2022-12-03T14:45:33.893Z,90161.56
2022-12-03T14:48:00.884Z,90159.00
2022-12-03T14:50:27.851Z,90164.63
2022-12-03T14:52:54.756Z,90176.19
2022-12-03T14:55:22.031Z,90172.78
2022-12-03T14:57:48.963Z,90166.16
2022-12-03T15:00:16.542Z,90164.34
2022-12-03T15:02:43.476Z,90169.03
2022-12-03T15:05:10.651Z,90165.38
2022-12-03T15:07:37.516Z,90174.66
2022-12-03T15:10:04.832Z,90176.13
2022-12-03T15:12:31.860Z,90181.13
2022-12-03T15:14:58.917Z,90181.13
2022-12-03T15:17:31.517Z,90180.63
2022-12-03T15:19:59.104Z,90170.81
2022-12-03T15:22:26.056Z,90183.03
2022-12-03T15:24:53.073Z,90187.78
2022-12-03T15:27:22.178Z,90183.94
2022-12-03T15:29:49.181Z,90184.53
2022-12-03T15:32:16.144Z,90187.78
2022-12-03T15:34:43.108Z,90188.53
2022-12-03T15:37:10.088Z,90188.41
2022-12-03T15:39:37.177Z,90192.84
2022-12-03T15:42:04.170Z,90194.31
2022-12-03T15:44:31.113Z,90201.00
2022-12-03T15:46:58.032Z,90198.25
2022-12-03T15:49:24.871Z,90201.66
2022-12-03T15:51:51.754Z,90189.13
2022-12-03T15:54:18.570Z,90193.28
2022-12-03T15:56:45.612Z,90203.03
2022-12-03T15:59:12.457Z,90212.47
2022-12-03T16:01:39.429Z,90207.63
2022-12-03T16:04:06.420Z,90204.50
2022-12-03T16:06:33.381Z,90196.13
2022-12-03T16:09:00.264Z,90207.91
2022-12-03T16:11:27.228Z,90212.63
2022-12-03T16:13:54.155Z,90217.66
2022-12-03T16:16:23.884Z,90211.91
2022-12-03T16:18:50.774Z,90212.34
2022-12-03T16:21:20.837Z,90217.50
2022-12-03T16:23:51.864Z,90212.78
2022-12-03T16:26:18.971Z,90210.56
2022-12-03T16:28:45.842Z,90215.88
2022-12-03T16:31:12.832Z,90214.41
2022-12-03T16:33:39.744Z,90200.38
2022-12-03T16:36:06.949Z,90206.56
2022-12-03T16:38:33.926Z,90226.34
2022-12-03T16:41:01.110Z,90220.28
2022-12-03T16:43:28.441Z,90209.06
2022-12-03T16:45:55.799Z,90224.72
2022-12-03T16:48:23.471Z,90221.47
2022-12-03T16:50:50.406Z,90222.66
2022-12-03T16:53:17.370Z,90230.22
2022-12-03T16:55:46.039Z,90229.44
2022-12-03T16:58:12.993Z,90229.72
2022-12-03T17:00:39.931Z,90237.09
2022-12-03T17:03:14.986Z,90220.59
2022-12-03T17:05:41.908Z,90227.66
2022-12-03T17:08:10.678Z,90240.50
2022-12-03T17:10:38.372Z,90239.91
2022-12-03T17:13:10.171Z,90239.19
2022-12-03T17:15:38.212Z,90247.13
2022-12-03T17:18:05.635Z,90233.44
2022-12-03T17:20:33.784Z,90241.38
2022-12-03T17:23:00.875Z,90236.81
2022-12-03T17:25:28.618Z,90244.50
2022-12-03T17:27:55.564Z,90244.78
2022-12-03T17:30:22.612Z,90234.59
2022-12-03T17:32:49.586Z,90243.88
2022-12-03T17:35:17.058Z,90242.41
2022-12-03T17:37:43.803Z,90247.44
2022-12-03T17:40:13.061Z,90244.66
2022-12-03T17:42:40.280Z,90234.75
2022-12-03T17:45:07.871Z,90248.03
2022-12-03T17:47:34.909Z,90240.94
2022-12-03T17:50:01.931Z,90241.84
2022-12-03T17:52:31.871Z,90247.44
2022-12-03T17:55:23.637Z,90251.13
2022-12-03T17:57:45.683Z,90249.06
2022-12-03T18:00:12.982Z,90244.75
2022-12-03T18:02:39.927Z,90248.75
2022-12-03T18:05:07.118Z,90249.47
2022-12-03T18:07:34.317Z,90252.25
2022-12-03T18:10:01.479Z,90261.28
2022-12-03T18:12:28.652Z,90262.59
2022-12-03T18:14:55.475Z,90265.56
2022-12-03T18:17:22.269Z,90266.47
2022-12-03T18:19:49.210Z,90266.63
2022-12-03T18:22:17.029Z,90263.31
2022-12-03T18:24:46.285Z,90259.63
2022-12-03T18:27:14.699Z,90250.03
2022-12-03T18:29:41.553Z,90265.38
2022-12-03T18:32:27.191Z,90258.16
2022-12-03T18:35:01.285Z,90264.06
2022-12-03T18:37:30.121Z,90261.63
2022-12-03T18:39:58.500Z,90257.22
2022-12-03T18:42:26.093Z,90269.56
2022-12-03T18:44:55.502Z,90256.09
2022-12-03T18:47:27.013Z,90262.31
2022-12-03T18:49:54.322Z,90264.22
2022-12-03T18:52:23.075Z,90262.22
2022-12-03T18:54:50.222Z,90259.41
2022-12-03T18:57:17.079Z,90267.97
2022-12-03T18:59:43.865Z,90265.91
2022-12-03T19:02:45.819Z,90274.56
2022-12-03T19:05:04.710Z,90266.56
2022-12-03T19:07:31.580Z,90264.22
2022-12-03T19:09:58.478Z,90266.88
2022-12-03T19:12:25.406Z,90265.41
2022-12-03T19:14:52.300Z,90265.78
2022-12-03T19:17:19.362Z,90255.72
2022-12-03T19:19:46.204Z,90265.84
2022-12-03T19:22:13.022Z,90257.88
2022-12-03T19:24:39.925Z,90269.34
2022-12-03T19:27:16.127Z,90266.56
2022-12-03T19:29:42.967Z,90263.47
2022-12-03T19:32:09.788Z,90267.75
2022-12-03T19:34:36.895Z,90268.78
2022-12-03T19:37:03.975Z,90265.13
2022-12-03T19:39:33.700Z,90267.97
2022-12-03T19:42:00.634Z,90259.09
2022-12-03T19:44:27.541Z,90270.72
2022-12-03T19:46:54.509Z,90271.78
2022-12-03T19:49:21.551Z,90278.25
2022-12-03T19:51:48.715Z,90264.72
2022-12-03T19:54:17.020Z,90271.91
2022-12-03T19:56:44.211Z,90265.13
2022-12-03T19:59:12.980Z,90275.25
2022-12-03T20:01:41.026Z,90278.53
2022-12-03T20:04:08.821Z,90271.88
2022-12-03T20:06:38.141Z,90268.75
2022-12-03T20:09:15.538Z,90269.19
2022-12-03T20:11:42.914Z,90267.22
2022-12-03T20:14:13.662Z,90260.25
2022-12-03T20:16:40.652Z,90269.88
2022-12-03T20:19:10.129Z,90267.81
2022-12-03T20:21:38.551Z,90264.34
2022-12-03T20:24:06.165Z,90271.00
2022-12-03T20:26:32.960Z,90260.88
2022-12-03T20:29:00.109Z,90261.63
2022-12-03T20:31:29.888Z,90262.31
2022-12-03T20:33:59.358Z,90264.81
2022-12-03T20:36:28.435Z,90263.06
2022-12-03T20:38:57.182Z,90253.72
2022-12-03T20:41:24.481Z,90264.34
2022-12-03T20:43:51.847Z,90258.91
2022-12-03T20:46:20.373Z,90253.78
2022-12-03T20:48:47.371Z,90259.97
2022-12-03T20:51:17.744Z,90256.13
2022-12-03T20:53:45.859Z,90259.66
2022-12-03T20:56:34.930Z,90256.81
2022-12-03T20:59:07.599Z,90262.13
2022-12-03T21:01:35.188Z,90259.84
2022-12-03T21:04:02.479Z,90263.19
2022-12-03T21:06:29.248Z,90255.84
2022-12-03T21:08:58.115Z,90267.19
2022-12-03T21:11:27.566Z,90258.75
2022-12-03T21:13:55.219Z,90253.31
2022-12-03T21:16:45.476Z,90269.28
2022-12-03T21:19:12.021Z,90261.44
2022-12-03T21:21:38.977Z,90262.53
2022-12-03T21:24:06.104Z,90256.34
2022-12-03T21:26:33.396Z,90251.69
2022-12-03T21:29:01.012Z,90259.56
2022-12-03T21:31:28.057Z,90258.78
2022-12-03T21:33:55.991Z,90256.31
2022-12-03T21:36:23.734Z,90262.78
2022-12-03T21:38:51.400Z,90259.25
2022-12-03T21:41:18.538Z,90259.25
2022-12-03T21:43:45.427Z,90253.69
2022-12-03T21:47:09.454Z,90248.72
2022-12-03T21:49:02.273Z,90245.03
2022-12-03T21:51:29.116Z,90250.81
2022-12-03T21:53:56.160Z,90254.75
2022-12-03T21:56:23.296Z,90254.00
2022-12-03T21:58:50.170Z,90247.69
2022-12-03T22:01:22.737Z,90251.09
2022-12-03T22:03:50.203Z,90246.03
2022-12-03T22:06:19.071Z,90252.56
2022-12-03T22:08:46.592Z,90253.16
2022-12-03T22:11:16.411Z,90249.19
2022-12-03T22:13:43.566Z,90251.88
2022-12-03T22:16:13.447Z,90247.31
2022-12-03T22:18:40.838Z,90251.63
2022-12-03T22:21:13.202Z,90246.09
2022-12-03T22:23:40.043Z,90248.91
2022-12-03T22:26:09.116Z,90245.91
2022-12-03T22:28:35.965Z,90248.44
2022-12-03T22:31:07.500Z,90238.38
2022-12-03T22:33:35.443Z,90237.19
2022-12-03T22:36:05.425Z,90242.09
2022-12-03T22:38:32.778Z,90246.34
2022-12-03T22:41:00.234Z,90246.94
2022-12-03T22:43:27.163Z,90246.69
2022-12-03T22:45:55.177Z,90235.66
2022-12-03T22:48:23.122Z,90244.56
2022-12-03T22:50:51.730Z,90241.63
2022-12-03T22:53:19.371Z,90239.25
2022-12-03T22:55:55.620Z,90236.75
2022-12-03T22:58:22.564Z,90239.19
2022-12-03T23:00:49.806Z,90243.88
2022-12-03T23:03:16.756Z,90240.22
2022-12-03T23:05:43.720Z,90245.38
2022-12-03T23:08:21.100Z,90237.22
2022-12-03T23:10:50.824Z,90229.78
2022-12-03T23:13:19.396Z,90239.34
2022-12-03T23:15:52.971Z,90239.06
2022-12-03T23:18:20.875Z,90238.34
2022-12-03T23:20:50.787Z,90248.34
2022-12-03T23:23:19.349Z,90245.81
2022-12-03T23:26:04.023Z,90243.66
2022-12-03T23:28:33.241Z,90237.47
2022-12-03T23:31:00.545Z,90226.88
2022-12-03T23:33:28.283Z,90229.22
2022-12-03T23:35:55.204Z,90242.88
2022-12-03T23:38:22.496Z,90235.78
2022-12-03T23:40:49.980Z,90247.09
2022-12-03T23:43:17.031Z,90238.00
2022-12-03T23:45:43.932Z,90246.69
2022-12-03T23:48:10.944Z,90241.31
2022-12-03T23:50:41.060Z,90244.25
2022-12-03T23:53:07.911Z,90239.66
2022-12-03T23:55:34.847Z,90253.13
2022-12-03T23:58:01.805Z,90248.38
